sensor_id;sensor_type;location;lat;lon;timestamp;temperature;humidity
1888;DHT22;944;51.574;6.980;2024-03-29T04:43:34;8.30;1.00
1888;DHT22;944;51.574;6.980;2024-03-29T07:09:32;7.30;1.00
1888;DHT22;944;51.574;6.980;2024-03-29T07:19:45;7.40;13.40
1888;DHT22;944;51.574;6.980;2024-03-29T08:15:34;8.80;99.90
1888;DHT22;944;51.574;6.980;2024-03-29T08:18:17;8.90;1.00
1888;DHT22;944;51.574;6.980;2024-03-29T08:46:26;10.00;99.90
1888;DHT22;944;51.574;6.980;2024-03-29T08:48:14;10.00;99.90
1888;DHT22;944;51.574;6.980;2024-03-29T10:48:10;11.90;82.00
1888;DHT22;944;51.574;6.980;2024-03-29T14:06:04;15.10;90.50
1888;DHT22;944;51.574;6.980;2024-03-29T14:09:06;15.00;90.90
1888;DHT22;944;51.574;6.980;2024-03-29T14:11:58;15.10;90.40
1888;DHT22;944;51.574;6.980;2024-03-29T14:33:31;15.10;85.50
1888;DHT22;944;51.574;6.980;2024-03-29T15:28:08;15.10;64.50
1888;DHT22;944;51.574;6.980;2024-03-29T15:31:15;15.10;66.90
1888;DHT22;944;51.574;6.980;2024-03-29T15:37:03;15.10;66.30
1888;DHT22;944;51.574;6.980;2024-03-29T15:39:44;15.10;65.30
1888;DHT22;944;51.574;6.980;2024-03-29T15:42:48;15.10;64.00
1888;DHT22;944;51.574;6.980;2024-03-29T17:52:15;13.00;99.90
1888;DHT22;944;51.574;6.980;2024-03-29T17:56:58;13.00;99.90
1888;DHT22;944;51.574;6.980;2024-03-29T17:59:33;13.00;99.90
1888;DHT22;944;51.574;6.980;2024-03-29T18:02:12;12.90;99.90
1888;DHT22;944;51.574;6.980;2024-03-29T18:05:04;12.90;99.90
1888;DHT22;944;51.574;6.980;2024-03-29T18:11:14;12.80;99.90
1888;DHT22;944;51.574;6.980;2024-03-29T18:29:26;12.70;99.90
1888;DHT22;944;51.574;6.980;2024-03-29T18:59:57;12.60;99.90
1888;DHT22;944;51.574;6.980;2024-03-29T19:02:24;12.60;99.90
1888;DHT22;944;51.574;6.980;2024-03-29T19:04:53;12.50;99.90
1888;DHT22;944;51.574;6.980;2024-03-29T19:07:23;12.40;99.90
1888;DHT22;944;51.574;6.980;2024-03-29T19:09:49;12.50;99.90
1888;DHT22;944;51.574;6.980;2024-03-29T19:12:16;12.40;99.90
1888;DHT22;944;51.574;6.980;2024-03-29T19:14:50;12.40;99.90
1888;DHT22;944;51.574;6.980;2024-03-29T19:17:25;12.40;99.90
1888;DHT22;944;51.574;6.980;2024-03-29T19:19:51;12.40;99.90
1888;DHT22;944;51.574;6.980;2024-03-29T19:22:27;12.30;99.90
1888;DHT22;944;51.574;6.980;2024-03-29T19:24:53;12.30;99.90
1888;DHT22;944;51.574;6.980;2024-03-29T19:27:20;12.30;99.90
1888;DHT22;944;51.574;6.980;2024-03-29T19:29:49;12.20;99.90
1888;DHT22;944;51.574;6.980;2024-03-29T19:32:19;12.10;99.90
1888;DHT22;944;51.574;6.980;2024-03-29T19:34:53;12.10;99.90
1888;DHT22;944;51.574;6.980;2024-03-29T19:37:22;12.10;99.90
1888;DHT22;944;51.574;6.980;2024-03-29T19:39:57;12.10;99.90
1888;DHT22;944;51.574;6.980;2024-03-29T19:42:31;12.10;99.90
1888;DHT22;944;51.574;6.980;2024-03-29T19:44:57;12.10;99.90
1888;DHT22;944;51.574;6.980;2024-03-29T19:47:28;12.00;99.90
1888;DHT22;944;51.574;6.980;2024-03-29T19:49:58;12.00;99.90
1888;DHT22;944;51.574;6.980;2024-03-29T19:52:33;12.00;99.90
1888;DHT22;944;51.574;6.980;2024-03-29T19:55:02;12.00;99.90
1888;DHT22;944;51.574;6.980;2024-03-29T19:57:34;11.90;99.90
1888;DHT22;944;51.574;6.980;2024-03-29T20:00:00;11.90;99.90
1888;DHT22;944;51.574;6.980;2024-03-29T20:02:35;11.90;99.90
1888;DHT22;944;51.574;6.980;2024-03-29T20:05:05;11.80;99.90
1888;DHT22;944;51.574;6.980;2024-03-29T20:07:36;11.80;99.90
1888;DHT22;944;51.574;6.980;2024-03-29T20:10:05;11.80;99.90
1888;DHT22;944;51.574;6.980;2024-03-29T20:12:35;11.70;99.90
1888;DHT22;944;51.574;6.980;2024-03-29T20:15:05;11.70;99.90
1888;DHT22;944;51.574;6.980;2024-03-29T20:17:38;11.70;99.90
1888;DHT22;944;51.574;6.980;2024-03-29T20:20:09;11.70;99.90
1888;DHT22;944;51.574;6.980;2024-03-29T20:22:44;11.60;99.90
1888;DHT22;944;51.574;6.980;2024-03-29T20:25:10;11.60;99.90
1888;DHT22;944;51.574;6.980;2024-03-29T20:27:37;11.50;99.90
1888;DHT22;944;51.574;6.980;2024-03-29T20:30:05;11.60;99.90
1888;DHT22;944;51.574;6.980;2024-03-29T20:32:45;11.50;99.90
1888;DHT22;944;51.574;6.980;2024-03-29T20:35:13;11.30;99.90
1888;DHT22;944;51.574;6.980;2024-03-29T20:37:57;11.50;99.90
1888;DHT22;944;51.574;6.980;2024-03-29T20:40:39;11.40;99.90
1888;DHT22;944;51.574;6.980;2024-03-29T20:43:08;11.40;99.90
1888;DHT22;944;51.574;6.980;2024-03-29T20:45:41;11.50;99.90
1888;DHT22;944;51.574;6.980;2024-03-29T20:48:09;11.40;99.90
1888;DHT22;944;51.574;6.980;2024-03-29T20:50:40;11.40;99.90
1888;DHT22;944;51.574;6.980;2024-03-29T20:53:15;11.40;99.90
1888;DHT22;944;51.574;6.980;2024-03-29T20:55:47;11.50;99.90
1888;DHT22;944;51.574;6.980;2024-03-29T20:58:13;11.40;99.90
1888;DHT22;944;51.574;6.980;2024-03-29T21:00:41;11.20;99.90
1888;DHT22;944;51.574;6.980;2024-03-29T21:06:52;11.10;99.90
1888;DHT22;944;51.574;6.980;2024-03-29T21:09:22;11.20;99.90
1888;DHT22;944;51.574;6.980;2024-03-29T21:11:53;11.30;99.90
1888;DHT22;944;51.574;6.980;2024-03-29T21:14:34;11.20;99.90
1888;DHT22;944;51.574;6.980;2024-03-29T21:17:11;11.30;99.90
1888;DHT22;944;51.574;6.980;2024-03-29T21:19:41;11.20;99.90
1888;DHT22;944;51.574;6.980;2024-03-29T21:22:10;11.20;99.90
1888;DHT22;944;51.574;6.980;2024-03-29T21:24:39;11.20;99.90
1888;DHT22;944;51.574;6.980;2024-03-29T21:27:09;11.20;99.90
1888;DHT22;944;51.574;6.980;2024-03-29T21:29:39;11.20;99.90
1888;DHT22;944;51.574;6.980;2024-03-29T21:32:12;11.20;99.90
1888;DHT22;944;51.574;6.980;2024-03-29T21:34:38;11.20;99.90
1888;DHT22;944;51.574;6.980;2024-03-29T21:37:07;11.20;99.90
1888;DHT22;944;51.574;6.980;2024-03-29T21:39:38;11.20;99.90
1888;DHT22;944;51.574;6.980;2024-03-29T21:42:06;11.20;99.90
1888;DHT22;944;51.574;6.980;2024-03-29T21:44:36;11.20;99.90
1888;DHT22;944;51.574;6.980;2024-03-29T21:47:06;11.20;99.90
1888;DHT22;944;51.574;6.980;2024-03-29T21:49:35;11.20;99.90
1888;DHT22;944;51.574;6.980;2024-03-29T21:52:05;11.30;99.90
1888;DHT22;944;51.574;6.980;2024-03-29T21:54:34;11.20;99.90
1888;DHT22;944;51.574;6.980;2024-03-29T21:57:06;11.30;99.90
1888;DHT22;944;51.574;6.980;2024-03-29T21:59:37;11.00;99.90
1888;DHT22;944;51.574;6.980;2024-03-29T22:02:08;11.20;99.90
1888;DHT22;944;51.574;6.980;2024-03-29T22:04:36;11.20;99.90
1888;DHT22;944;51.574;6.980;2024-03-29T22:07:03;11.20;99.90
1888;DHT22;944;51.574;6.980;2024-03-29T22:13:32;11.20;99.90
1888;DHT22;944;51.574;6.980;2024-03-29T22:16:03;11.20;99.90
1888;DHT22;944;51.574;6.980;2024-03-29T22:18:32;11.20;99.90
1888;DHT22;944;51.574;6.980;2024-03-29T22:20:59;11.20;99.90
1888;DHT22;944;51.574;6.980;2024-03-29T22:27:06;11.20;99.90
1888;DHT22;944;51.574;6.980;2024-03-29T22:29:37;11.20;1.00
1888;DHT22;944;51.574;6.980;2024-03-29T22:32:16;11.20;1.00
1888;DHT22;944;51.574;6.980;2024-03-29T22:34:44;10.90;1.00
1888;DHT22;944;51.574;6.980;2024-03-29T22:37:10;11.10;1.00
1888;DHT22;944;51.574;6.980;2024-03-29T22:39:47;11.10;1.00
1888;DHT22;944;51.574;6.980;2024-03-29T22:42:17;11.00;1.00
1888;DHT22;944;51.574;6.980;2024-03-29T22:44:45;11.00;1.00
1888;DHT22;944;51.574;6.980;2024-03-29T22:47:20;10.90;1.00
1888;DHT22;944;51.574;6.980;2024-03-29T22:49:47;10.90;92.40
1888;DHT22;944;51.574;6.980;2024-03-29T22:52:16;10.90;99.90
1888;DHT22;944;51.574;6.980;2024-03-29T22:54:45;10.80;99.90
1888;DHT22;944;51.574;6.980;2024-03-29T22:57:11;10.70;99.90
1888;DHT22;944;51.574;6.980;2024-03-29T22:59:49;10.90;99.90
1888;DHT22;944;51.574;6.980;2024-03-29T23:02:21;10.70;1.00
1888;DHT22;944;51.574;6.980;2024-03-29T23:04:48;10.60;1.00
1888;DHT22;944;51.574;6.980;2024-03-29T23:11:14;10.50;99.90
1888;DHT22;944;51.574;6.980;2024-03-29T23:13:45;10.40;1.00
1888;DHT22;944;51.574;6.980;2024-03-29T23:30:20;10.20;1.00
1888;DHT22;944;51.574;6.980;2024-03-29T23:32:56;10.20;99.90
1888;DHT22;944;51.574;6.980;2024-03-29T23:35:31;10.20;99.90
1888;DHT22;944;51.574;6.980;2024-03-29T23:38:10;10.20;1.00
1888;DHT22;944;51.574;6.980;2024-03-29T23:40:54;10.20;23.00
1888;DHT22;944;51.574;6.980;2024-03-29T23:43:28;10.20;85.20
1888;DHT22;944;51.574;6.980;2024-03-29T23:46:04;10.10;99.90
1888;DHT22;944;51.574;6.980;2024-03-29T23:48:32;10.20;99.90
1888;DHT22;944;51.574;6.980;2024-03-29T23:51:05;10.20;99.90
1888;DHT22;944;51.574;6.980;2024-03-29T23:53:32;10.20;99.90
1888;DHT22;944;51.574;6.980;2024-03-29T23:55:59;10.20;99.90
1888;DHT22;944;51.574;6.980;2024-03-29T23:58:29;10.20;99.90
